Time;durP1;ratioP1;P1;durP2;ratioP2;P2;SDS_P1;SDS_P2;PMS_P1;PMS_P2;Temp;Humidity;BMP_temperature;BMP_pressure;BME280_temperature;BME280_humidity;BME280_pressure;Samples;Min_cycle;Max_cycle;Signal;HPM_P1;HPM_P2
2022/11/25 00:02:24;;;;;;;18.95;3.60;;;;;;;;;;5011877;28;20191;-67
2022/11/25 00:04:49;;;;;;;16.45;3.00;;;;;;;;;;5018331;28;20182;-67
2022/11/25 00:07:14;;;;;;;21.02;4.25;;;;;;;;;;5024633;28;20186;-68
2022/11/25 00:09:40;;;;;;;17.40;3.20;;;;;;;;;;5022347;28;20232;-68
2022/11/25 00:12:06;;;;;;;16.73;3.10;;;;;;;;;;5027730;28;20182;-68
2022/11/25 00:14:31;;;;;;;17.73;3.53;;;;;;;;;;5026152;28;20551;-67
2022/11/25 00:16:56;;;;;;;19.07;3.37;;;;;;;;;;5031469;28;20194;-68
2022/11/25 00:19:22;;;;;;;22.47;3.47;;;;;;;;;;5028425;28;20715;-68
2022/11/25 00:21:47;;;;;;;20.50;4.23;;;;;;;;;;5019520;28;20217;-67
2022/11/25 00:24:14;;;;;;;16.47;3.50;;;;;;;;;;5020221;28;20189;-67
2022/11/25 00:26:40;;;;;;;12.37;2.73;;;;;;;;;;5027384;28;20601;-67
2022/11/25 00:29:07;;;;;;;19.07;3.23;;;;;;;;;;5024580;28;20201;-67
2022/11/25 00:31:34;;;;;;;21.63;4.03;;;;;;;;;;5024184;28;20230;-67
2022/11/25 00:34:00;;;;;;;18.93;3.80;;;;;;;;;;5026415;28;20244;-67
2022/11/25 00:36:28;;;;;;;13.37;3.13;;;;;;;;;;5025778;28;20262;-67
2022/11/25 00:38:59;;;;;;;18.83;3.33;;;;;;;;;;5025541;28;20182;-67
2022/11/25 00:46:57;;;;;;;16.93;3.57;;;;;;;;;;5022349;28;20279;-67
2022/11/25 00:49:22;;;;;;;16.47;3.37;;;;;;;;;;5024643;28;20194;-67
2022/11/25 00:51:48;;;;;;;10.67;2.83;;;;;;;;;;5018931;28;20725;-68
2022/11/25 00:54:13;;;;;;;19.23;3.37;;;;;;;;;;5021183;28;20206;-68
2022/11/25 00:56:39;;;;;;;18.60;3.00;;;;;;;;;;5018996;28;20186;-67
2022/11/25 00:59:05;;;;;;;19.00;3.20;;;;;;;;;;5015375;28;20557;-67
2022/11/25 01:01:30;;;;;;;13.83;2.73;;;;;;;;;;5029306;28;20190;-67
2022/11/25 01:03:56;;;;;;;13.60;2.83;;;;;;;;;;5018711;28;20214;-68
2022/11/25 01:06:22;;;;;;;17.60;2.70;;;;;;;;;;5025921;28;20229;-67
2022/11/25 01:08:47;;;;;;;16.65;4.00;;;;;;;;;;5010282;28;20197;-67
2022/11/25 01:11:15;;;;;;;15.55;3.00;;;;;;;;;;5016833;28;20614;-67
2022/11/25 01:13:41;;;;;;;12.17;2.77;;;;;;;;;;5012356;28;20195;-67
2022/11/25 01:16:09;;;;;;;13.73;4.15;;;;;;;;;;5022578;28;20182;-67
2022/11/25 01:18:35;;;;;;;14.55;2.78;;;;;;;;;;5019363;28;20221;-68
2022/11/25 01:21:16;;;;;;;20.65;2.95;;;;;;;;;;5026892;28;20182;-68
2022/11/25 01:23:42;;;;;;;20.17;3.50;;;;;;;;;;5021553;28;20194;-67
2022/11/25 01:26:11;;;;;;;15.70;3.10;;;;;;;;;;5025898;28;20243;-67
2022/11/25 01:28:37;;;;;;;16.58;3.15;;;;;;;;;;5028682;28;20182;-67
2022/11/25 01:31:11;;;;;;;17.63;3.42;;;;;;;;;;5027137;28;20251;-68
2022/11/25 01:33:37;;;;;;;20.13;3.30;;;;;;;;;;5025908;28;20209;-68
2022/11/25 01:36:08;;;;;;;16.60;3.35;;;;;;;;;;5019873;28;20792;-68
2022/11/25 01:38:34;;;;;;;13.85;3.20;;;;;;;;;;5017464;28;20195;-68
2022/11/25 01:41:00;;;;;;;10.95;3.15;;;;;;;;;;5026445;28;20192;-67
2022/11/25 01:43:26;;;;;;;17.55;3.38;;;;;;;;;;5020706;28;20272;-68
2022/11/25 01:45:55;;;;;;;17.90;3.72;;;;;;;;;;5012342;28;20191;-68
2022/11/25 01:48:27;;;;;;;17.17;3.67;;;;;;;;;;5016183;28;20191;-67
2022/11/25 01:50:53;;;;;;;18.85;3.42;;;;;;;;;;5023357;28;20221;-67
2022/11/25 01:53:20;;;;;;;20.40;3.58;;;;;;;;;;5023296;28;20182;-67
2022/11/25 01:55:50;;;;;;;14.82;3.63;;;;;;;;;;5016339;28;20589;-67
2022/11/25 01:58:29;;;;;;;18.90;3.72;;;;;;;;;;5022804;28;20186;-67
2022/11/25 02:00:54;;;;;;;14.73;3.35;;;;;;;;;;5024087;28;20178;-67
2022/11/25 02:03:33;;;;;;;15.15;3.50;;;;;;;;;;5014722;28;20187;-67
2022/11/25 02:06:09;;;;;;;19.50;3.10;;;;;;;;;;5015967;28;20184;-67
2022/11/25 02:08:35;;;;;;;19.02;3.80;;;;;;;;;;5024726;28;21955;-68
2022/11/25 02:11:03;;;;;;;16.63;3.37;;;;;;;;;;5018033;28;20611;-69
2022/11/25 02:13:29;;;;;;;23.15;3.40;;;;;;;;;;5016236;28;20269;-68
2022/11/25 02:15:55;;;;;;;21.17;3.95;;;;;;;;;;5013694;28;20276;-68
2022/11/25 02:18:20;;;;;;;16.25;3.38;;;;;;;;;;5019275;28;20190;-68
2022/11/25 02:20:45;;;;;;;15.40;3.00;;;;;;;;;;5026292;28;20185;-68
2022/11/25 02:23:10;;;;;;;21.10;3.80;;;;;;;;;;5026383;28;20194;-68
2022/11/25 02:25:40;;;;;;;18.17;3.35;;;;;;;;;;5015548;28;20206;-67
2022/11/25 02:28:11;;;;;;;26.33;3.53;;;;;;;;;;5022418;28;20548;-67
2022/11/25 02:30:36;;;;;;;20.25;4.07;;;;;;;;;;5023734;28;20217;-68
2022/11/25 02:33:02;;;;;;;21.20;3.30;;;;;;;;;;5020774;28;20221;-68
2022/11/25 02:35:35;;;;;;;15.27;3.80;;;;;;;;;;5010994;28;20206;-67
2022/11/25 02:38:21;;;;;;;19.63;4.78;;;;;;;;;;5014216;28;20221;-67
2022/11/25 02:40:51;;;;;;;23.33;3.58;;;;;;;;;;5019711;28;20549;-67
2022/11/25 02:43:17;;;;;;;21.00;5.07;;;;;;;;;;5018651;28;20183;-67
2022/11/25 02:46:04;;;;;;;16.33;3.33;;;;;;;;;;5022168;28;20526;-67
2022/11/25 02:48:32;;;;;;;17.63;3.40;;;;;;;;;;5020934;28;20802;-67
2022/11/25 02:50:58;;;;;;;23.48;3.25;;;;;;;;;;5024741;28;20185;-68
2022/11/25 02:53:24;;;;;;;21.15;3.63;;;;;;;;;;5019014;28;20182;-68
2022/11/25 02:55:50;;;;;;;16.60;3.70;;;;;;;;;;5021757;28;20218;-68
2022/11/25 02:58:16;;;;;;;20.95;3.90;;;;;;;;;;5023818;28;20190;-68
2022/11/25 03:00:43;;;;;;;18.75;4.05;;;;;;;;;;5022368;28;20646;-68
2022/11/25 03:03:09;;;;;;;18.45;3.85;;;;;;;;;;5018633;28;20271;-67
2022/11/25 03:05:34;;;;;;;21.05;3.75;;;;;;;;;;5022000;28;20596;-67
2022/11/25 03:08:00;;;;;;;16.95;3.45;;;;;;;;;;5011237;28;20242;-68
2022/11/25 03:10:25;;;;;;;19.83;3.75;;;;;;;;;;5014173;28;20190;-67
2022/11/25 03:12:51;;;;;;;23.35;3.67;;;;;;;;;;5017504;28;20192;-67
2022/11/25 03:15:17;;;;;;;23.10;3.65;;;;;;;;;;5021178;28;20264;-67
2022/11/25 03:17:42;;;;;;;22.85;3.72;;;;;;;;;;5022820;28;20236;-67
2022/11/25 03:20:09;;;;;;;18.40;3.50;;;;;;;;;;5025137;28;20182;-67
2022/11/25 03:22:35;;;;;;;19.67;3.47;;;;;;;;;;5023672;28;20204;-66
2022/11/25 03:25:00;;;;;;;24.58;3.83;;;;;;;;;;5021257;28;20176;-66
2022/11/25 03:27:26;;;;;;;17.85;3.75;;;;;;;;;;5027365;28;20193;-66
2022/11/25 03:29:51;;;;;;;23.35;4.57;;;;;;;;;;5018856;28;20182;-66
2022/11/25 03:32:16;;;;;;;15.15;3.75;;;;;;;;;;5026048;28;20209;-66
2022/11/25 03:34:42;;;;;;;23.20;3.75;;;;;;;;;;5024582;28;20228;-66
2022/11/25 03:37:08;;;;;;;18.60;3.95;;;;;;;;;;5018802;28;20509;-67
2022/11/25 03:39:33;;;;;;;18.67;3.78;;;;;;;;;;5012720;28;20198;-67
2022/11/25 03:41:58;;;;;;;19.63;4.43;;;;;;;;;;5013938;28;20193;-67
2022/11/25 03:44:24;;;;;;;22.13;3.65;;;;;;;;;;5022779;28;20631;-67
2022/11/25 03:46:49;;;;;;;17.90;4.97;;;;;;;;;;5029648;28;20651;-66
2022/11/25 03:49:15;;;;;;;16.80;3.65;;;;;;;;;;5020668;28;20610;-66
2022/11/25 03:51:40;;;;;;;19.48;3.58;;;;;;;;;;5017951;28;20184;-66
2022/11/25 03:54:05;;;;;;;18.17;4.07;;;;;;;;;;5024988;28;20241;-66
2022/11/25 03:56:31;;;;;;;14.07;3.55;;;;;;;;;;5028029;28;20193;-66
2022/11/25 03:58:56;;;;;;;13.18;3.50;;;;;;;;;;5026527;28;20186;-66
2022/11/25 04:01:21;;;;;;;21.10;4.10;;;;;;;;;;5024840;28;20893;-66
2022/11/25 04:03:47;;;;;;;18.92;4.57;;;;;;;;;;5028596;28;20197;-66
2022/11/25 04:06:12;;;;;;;17.85;4.28;;;;;;;;;;5025473;28;20191;-66
2022/11/25 04:08:37;;;;;;;15.18;3.40;;;;;;;;;;5025356;28;20190;-66
2022/11/25 04:11:02;;;;;;;22.02;4.22;;;;;;;;;;5030101;28;20178;-66
2022/11/25 04:13:28;;;;;;;14.65;3.63;;;;;;;;;;5024864;28;20540;-66
2022/11/25 04:15:53;;;;;;;20.30;4.25;;;;;;;;;;5015061;28;20203;-67
2022/11/25 04:18:19;;;;;;;20.27;4.18;;;;;;;;;;5029448;28;20244;-66
2022/11/25 04:20:45;;;;;;;21.15;4.43;;;;;;;;;;5018530;28;20189;-66
2022/11/25 04:23:11;;;;;;;22.65;5.03;;;;;;;;;;5029258;28;20192;-66
2022/11/25 04:25:38;;;;;;;24.13;6.35;;;;;;;;;;5020388;28;20175;-66
2022/11/25 04:28:03;;;;;;;22.33;4.40;;;;;;;;;;5024799;28;20244;-66
2022/11/25 04:30:29;;;;;;;19.38;4.57;;;;;;;;;;5027454;28;20186;-66
2022/11/25 04:32:55;;;;;;;17.98;4.78;;;;;;;;;;5019428;28;20206;-67
2022/11/25 04:35:20;;;;;;;16.27;4.60;;;;;;;;;;5024338;28;20666;-67
2022/11/25 04:37:46;;;;;;;22.58;5.70;;;;;;;;;;5021771;28;20312;-67
2022/11/25 04:40:12;;;;;;;14.83;4.73;;;;;;;;;;5017790;28;20269;-66
2022/11/25 04:42:38;;;;;;;20.17;5.38;;;;;;;;;;5019378;28;20217;-66
2022/11/25 04:45:10;;;;;;;16.88;4.35;;;;;;;;;;5024381;28;21466;-66
2022/11/25 04:47:35;;;;;;;21.67;4.87;;;;;;;;;;5030090;28;20182;-67
2022/11/25 04:50:01;;;;;;;24.05;5.25;;;;;;;;;;5019071;28;20715;-67
2022/11/25 04:52:26;;;;;;;28.45;5.55;;;;;;;;;;5018902;28;20204;-68
2022/11/25 04:54:52;;;;;;;17.17;4.93;;;;;;;;;;5020402;28;20194;-68
2022/11/25 04:57:17;;;;;;;20.85;5.22;;;;;;;;;;5014307;28;20669;-68
2022/11/25 04:59:43;;;;;;;24.75;5.95;;;;;;;;;;5021181;28;20643;-68
2022/11/25 05:02:13;;;;;;;18.33;6.20;;;;;;;;;;5015818;28;20324;-68
2022/11/25 05:04:40;;;;;;;25.00;4.50;;;;;;;;;;5018618;28;20211;-68
2022/11/25 05:07:05;;;;;;;35.10;5.75;;;;;;;;;;5013190;28;20277;-68
2022/11/25 05:09:30;;;;;;;24.33;5.65;;;;;;;;;;5028980;28;20210;-68
2022/11/25 05:11:56;;;;;;;28.63;6.65;;;;;;;;;;5023108;28;20526;-67
2022/11/25 05:14:22;;;;;;;25.40;5.90;;;;;;;;;;5026793;28;20292;-67
2022/11/25 05:16:48;;;;;;;27.98;6.40;;;;;;;;;;5016835;28;20194;-67
2022/11/25 05:19:13;;;;;;;23.20;5.75;;;;;;;;;;5025478;28;20182;-67
2022/11/25 05:21:38;;;;;;;20.80;6.20;;;;;;;;;;5019621;28;20222;-67
2022/11/25 05:24:04;;;;;;;23.40;6.28;;;;;;;;;;5011405;28;20273;-67
2022/11/25 05:26:29;;;;;;;22.92;6.47;;;;;;;;;;5007322;28;20221;-68
2022/11/25 05:28:55;;;;;;;22.88;6.38;;;;;;;;;;5025834;28;20190;-67
2022/11/25 05:31:20;;;;;;;19.38;6.13;;;;;;;;;;5024536;28;20187;-67
2022/11/25 05:33:45;;;;;;;20.27;6.45;;;;;;;;;;5027034;28;20197;-67
2022/11/25 05:36:11;;;;;;;25.17;6.57;;;;;;;;;;4986213;28;1035737;-67
2022/11/25 05:38:36;;;;;;;22.05;6.28;;;;;;;;;;5025833;28;20185;-67
2022/11/25 05:41:04;;;;;;;21.15;6.80;;;;;;;;;;5024407;28;20212;-67
2022/11/25 05:43:30;;;;;;;21.08;6.43;;;;;;;;;;5023126;28;20183;-67
2022/11/25 05:45:55;;;;;;;32.10;6.18;;;;;;;;;;5026838;28;20170;-67
2022/11/25 05:48:21;;;;;;;19.38;5.88;;;;;;;;;;5024036;28;20970;-67
2022/11/25 05:50:46;;;;;;;21.08;6.28;;;;;;;;;;5014424;28;20186;-67
2022/11/25 05:53:12;;;;;;;28.08;7.00;;;;;;;;;;5025095;28;20174;-67
2022/11/25 05:55:38;;;;;;;20.93;6.07;;;;;;;;;;5027804;28;20707;-66
2022/11/25 05:58:05;;;;;;;18.33;6.00;;;;;;;;;;5020807;28;20190;-67
2022/11/25 06:00:31;;;;;;;21.38;6.75;;;;;;;;;;5014718;28;20214;-66
2022/11/25 06:02:56;;;;;;;21.40;6.05;;;;;;;;;;5017185;28;20183;-66
2022/11/25 06:05:22;;;;;;;22.58;6.20;;;;;;;;;;5015148;28;20253;-66
2022/11/25 06:07:48;;;;;;;24.92;6.15;;;;;;;;;;5014945;28;20261;-66
2022/11/25 06:10:14;;;;;;;25.48;6.00;;;;;;;;;;5012543;28;20210;-66
2022/11/25 06:12:39;;;;;;;18.40;6.00;;;;;;;;;;5014325;28;20717;-67
2022/11/25 06:15:05;;;;;;;18.33;5.97;;;;;;;;;;5009077;28;20217;-66
2022/11/25 06:17:30;;;;;;;24.85;6.70;;;;;;;;;;5012075;28;20209;-67
2022/11/25 06:19:55;;;;;;;21.93;5.77;;;;;;;;;;5017643;28;20186;-66
2022/11/25 06:22:21;;;;;;;23.50;5.77;;;;;;;;;;5027249;28;20186;-66
2022/11/25 06:24:46;;;;;;;28.48;6.35;;;;;;;;;;5027045;28;20559;-66
2022/11/25 06:27:11;;;;;;;15.90;6.00;;;;;;;;;;5012649;28;20204;-66
2022/11/25 06:29:37;;;;;;;18.67;5.82;;;;;;;;;;5027291;28;20270;-67
2022/11/25 06:32:02;;;;;;;23.35;6.00;;;;;;;;;;5015745;28;20217;-66
2022/11/25 06:34:28;;;;;;;20.87;6.50;;;;;;;;;;5018464;28;20209;-66
2022/11/25 06:36:53;;;;;;;21.50;6.67;;;;;;;;;;5016034;28;20279;-67
2022/11/25 06:39:19;;;;;;;27.25;6.63;;;;;;;;;;5022941;28;20217;-67
2022/11/25 06:41:45;;;;;;;24.45;6.43;;;;;;;;;;5016024;28;20185;-67
2022/11/25 06:44:12;;;;;;;16.42;6.47;;;;;;;;;;5024181;28;20523;-67
2022/11/25 06:46:37;;;;;;;24.75;6.20;;;;;;;;;;5012779;28;20256;-67
2022/11/25 06:49:02;;;;;;;22.57;6.27;;;;;;;;;;5024796;28;20554;-66
2022/11/25 06:51:28;;;;;;;15.37;6.03;;;;;;;;;;5010025;28;20178;-66
2022/11/25 06:53:53;;;;;;;13.55;5.32;;;;;;;;;;5017084;28;20249;-66
2022/11/25 06:56:20;;;;;;;25.80;5.80;;;;;;;;;;5010926;28;20186;-67
2022/11/25 06:58:47;;;;;;;13.33;4.70;;;;;;;;;;5016558;28;20676;-67
2022/11/25 07:01:20;;;;;;;17.23;6.10;;;;;;;;;;5012466;28;20178;-68
2022/11/25 07:03:47;;;;;;;21.90;5.43;;;;;;;;;;5015697;28;20256;-67
2022/11/25 07:06:14;;;;;;;12.60;5.17;;;;;;;;;;5009491;28;20666;-66
2022/11/25 07:08:40;;;;;;;15.97;5.77;;;;;;;;;;5008457;28;20193;-67
2022/11/25 07:11:24;;;;;;;18.37;5.33;;;;;;;;;;5016844;28;20178;-66
2022/11/25 07:13:58;;;;;;;22.60;5.30;;;;;;;;;;5012793;28;20214;-66
2022/11/25 07:16:23;;;;;;;18.48;6.05;;;;;;;;;;5011143;28;20209;-66
2022/11/25 07:18:49;;;;;;;18.45;5.10;;;;;;;;;;5007766;28;20642;-66
2022/11/25 07:21:18;;;;;;;14.25;5.10;;;;;;;;;;5008282;28;20179;-66
2022/11/25 07:23:45;;;;;;;15.67;5.30;;;;;;;;;;5012363;28;20704;-66
2022/11/25 07:26:14;;;;;;;19.83;6.00;;;;;;;;;;5012080;28;20179;-66
2022/11/25 07:28:40;;;;;;;17.67;5.03;;;;;;;;;;5020558;28;20187;-67
2022/11/25 07:31:14;;;;;;;18.63;5.57;;;;;;;;;;5007957;28;20225;-67
2022/11/25 07:33:39;;;;;;;13.48;5.35;;;;;;;;;;5013704;28;20285;-67
2022/11/25 07:36:07;;;;;;;20.13;6.03;;;;;;;;;;5014094;28;20309;-67
2022/11/25 07:38:33;;;;;;;15.70;5.53;;;;;;;;;;5013494;28;20553;-67
2022/11/25 07:41:09;;;;;;;26.33;6.27;;;;;;;;;;5013406;28;20614;-67
2022/11/25 07:43:35;;;;;;;15.07;5.60;;;;;;;;;;5027101;28;20177;-67
2022/11/25 07:46:21;;;;;;;17.73;6.35;;;;;;;;;;5016893;28;20177;-67
2022/11/25 07:48:47;;;;;;;19.40;6.18;;;;;;;;;;5016303;28;20434;-67
2022/11/25 07:51:30;;;;;;;15.03;6.37;;;;;;;;;;5021233;28;20185;-67
2022/11/25 07:53:57;;;;;;;18.10;7.53;;;;;;;;;;5023667;28;20549;-66
2022/11/25 07:56:23;;;;;;;18.13;6.27;;;;;;;;;;5013417;28;20210;-66
2022/11/25 07:58:49;;;;;;;16.08;5.80;;;;;;;;;;5021677;28;20806;-66
2022/11/25 08:01:16;;;;;;;14.23;5.73;;;;;;;;;;5015928;28;20186;-66
2022/11/25 08:03:42;;;;;;;16.40;5.28;;;;;;;;;;5022475;28;20265;-66
2022/11/25 08:06:13;;;;;;;15.83;5.80;;;;;;;;;;5009726;28;20183;-67
2022/11/25 08:08:40;;;;;;;12.43;5.30;;;;;;;;;;5021477;28;20182;-66
2022/11/25 08:11:11;;;;;;;16.27;5.47;;;;;;;;;;5006758;28;20240;-66
2022/11/25 08:13:37;;;;;;;15.80;4.97;;;;;;;;;;5013829;28;20218;-67
2022/11/25 08:16:03;;;;;;;19.38;5.50;;;;;;;;;;5016800;28;20238;-66
2022/11/25 08:18:28;;;;;;;14.27;5.72;;;;;;;;;;5012446;28;20204;-66
2022/11/25 08:21:00;;;;;;;20.02;5.05;;;;;;;;;;5010690;28;20189;-67
2022/11/25 08:23:26;;;;;;;19.77;5.22;;;;;;;;;;5011973;28;20187;-66
2022/11/25 08:25:52;;;;;;;15.75;4.88;;;;;;;;;;5009982;28;20179;-67
2022/11/25 08:28:17;;;;;;;15.15;4.72;;;;;;;;;;5013976;28;20186;-66
2022/11/25 08:30:43;;;;;;;15.38;4.68;;;;;;;;;;5016101;28;20194;-66
2022/11/25 08:33:08;;;;;;;16.38;4.82;;;;;;;;;;5018933;28;20293;-67
2022/11/25 08:35:36;;;;;;;12.38;4.88;;;;;;;;;;5016829;28;20574;-67
2022/11/25 08:38:07;;;;;;;7.82;3.90;;;;;;;;;;5020516;28;20191;-66
2022/11/25 08:40:35;;;;;;;15.60;4.55;;;;;;;;;;5009684;28;20187;-66
2022/11/25 08:43:01;;;;;;;15.75;4.50;;;;;;;;;;5011670;28;20887;-67
2022/11/25 08:45:27;;;;;;;13.40;4.80;;;;;;;;;;5014296;28;20182;-67
2022/11/25 08:47:53;;;;;;;16.15;5.32;;;;;;;;;;5026116;28;20258;-67
2022/11/25 08:50:18;;;;;;;16.58;4.53;;;;;;;;;;5013707;28;20669;-67
2022/11/25 08:52:43;;;;;;;14.90;4.57;;;;;;;;;;5011207;28;20210;-66
2022/11/25 08:55:09;;;;;;;12.23;4.28;;;;;;;;;;5015650;28;20230;-67
2022/11/25 08:57:35;;;;;;;11.02;4.70;;;;;;;;;;5015789;28;20646;-67
2022/11/25 09:00:01;;;;;;;12.10;5.70;;;;;;;;;;5013993;28;20247;-67
2022/11/25 09:02:26;;;;;;;13.90;4.88;;;;;;;;;;5017840;28;20178;-67
2022/11/25 09:04:52;;;;;;;10.50;4.38;;;;;;;;;;5036354;28;20562;-67
2022/11/25 09:07:18;;;;;;;16.45;4.80;;;;;;;;;;5011042;28;20178;-67
2022/11/25 09:09:43;;;;;;;15.17;5.63;;;;;;;;;;5012400;28;20191;-67
2022/11/25 09:12:08;;;;;;;13.63;5.40;;;;;;;;;;5015343;28;20202;-66
2022/11/25 09:14:34;;;;;;;15.10;4.53;;;;;;;;;;5021886;28;20214;-66
2022/11/25 09:17:00;;;;;;;14.48;4.72;;;;;;;;;;5011239;28;20186;-66
2022/11/25 09:19:26;;;;;;;14.52;4.50;;;;;;;;;;5016048;28;20209;-67
2022/11/25 09:21:55;;;;;;;11.05;4.43;;;;;;;;;;5010283;28;20198;-67
2022/11/25 09:24:20;;;;;;;11.77;4.10;;;;;;;;;;5017065;28;20209;-67
2022/11/25 09:26:46;;;;;;;14.15;4.47;;;;;;;;;;5016754;28;20665;-66
2022/11/25 09:29:12;;;;;;;14.52;4.90;;;;;;;;;;5012506;28;20197;-67
2022/11/25 09:31:38;;;;;;;13.00;4.43;;;;;;;;;;5011180;28;20288;-66
2022/11/25 09:34:04;;;;;;;12.98;4.10;;;;;;;;;;5010167;28;20292;-66
2022/11/25 09:36:29;;;;;;;14.73;4.50;;;;;;;;;;5010994;28;20324;-66
2022/11/25 09:38:54;;;;;;;10.15;3.80;;;;;;;;;;5009447;28;20282;-66
2022/11/25 09:48:05;;;;;;;10.55;4.30;;;;;;;;;;5009527;28;20197;-66
2022/11/25 09:50:42;;;;;;;11.65;3.60;;;;;;;;;;5013190;28;20197;-66
2022/11/25 09:53:38;;;;;;;10.23;3.60;;;;;;;;;;5012313;28;20228;-67
2022/11/25 09:56:27;;;;;;;12.25;3.72;;;;;;;;;;5013904;28;20206;-67
2022/11/25 09:59:10;;;;;;;11.80;3.25;;;;;;;;;;5020883;28;20194;-66
2022/11/25 10:02:03;;;;;;;9.35;3.13;;;;;;;;;;5009141;28;20210;-66
2022/11/25 10:04:35;;;;;;;9.35;3.03;;;;;;;;;;5013822;28;20211;-67
2022/11/25 10:07:03;;;;;;;12.07;3.63;;;;;;;;;;5012831;28;20619;-67
2022/11/25 10:09:33;;;;;;;10.07;3.28;;;;;;;;;;5029897;28;20178;-67
2022/11/25 10:12:16;;;;;;;17.00;4.15;;;;;;;;;;5022333;28;20193;-66
2022/11/25 10:14:50;;;;;;;11.55;4.15;;;;;;;;;;5025294;28;20193;-66
2022/11/25 10:17:32;;;;;;;10.88;3.05;;;;;;;;;;5028610;28;20198;-67
2022/11/25 10:20:31;;;;;;;11.57;4.50;;;;;;;;;;5029482;28;20186;-67
2022/11/25 10:23:03;;;;;;;13.48;3.70;;;;;;;;;;5012706;28;20195;-67
2022/11/25 10:25:34;;;;;;;10.93;2.88;;;;;;;;;;5022382;28;20281;-67
2022/11/25 10:28:17;;;;;;;9.70;3.17;;;;;;;;;;5016314;28;20183;-67
2022/11/25 10:30:49;;;;;;;11.73;3.63;;;;;;;;;;5012634;28;20200;-67
2022/11/25 10:33:26;;;;;;;9.73;3.80;;;;;;;;;;5010379;28;20205;-67
2022/11/25 10:36:06;;;;;;;10.00;3.28;;;;;;;;;;5020006;28;20197;-67
2022/11/25 10:38:44;;;;;;;8.25;2.65;;;;;;;;;;5013033;28;20187;-67
2022/11/25 10:41:19;;;;;;;10.75;2.90;;;;;;;;;;5009499;28;20260;-67
2022/11/25 10:43:46;;;;;;;9.27;2.92;;;;;;;;;;5009596;28;20190;-67
2022/11/25 10:46:26;;;;;;;8.48;2.70;;;;;;;;;;5011441;28;20627;-67
2022/11/25 10:49:13;;;;;;;9.75;3.08;;;;;;;;;;5010089;28;20182;-67
2022/11/25 10:51:44;;;;;;;12.00;3.03;;;;;;;;;;5013031;28;20733;-67
2022/11/25 10:54:13;;;;;;;6.32;3.00;;;;;;;;;;5012997;28;20240;-67
2022/11/25 10:56:51;;;;;;;8.25;3.00;;;;;;;;;;5009873;28;20186;-67
2022/11/25 10:59:33;;;;;;;10.43;2.95;;;;;;;;;;5012687;28;20264;-67
2022/11/25 11:02:28;;;;;;;11.55;3.20;;;;;;;;;;5007600;28;20190;-67
2022/11/25 11:05:29;;;;;;;7.47;2.60;;;;;;;;;;5017612;28;20241;-67
2022/11/25 11:08:22;;;;;;;9.13;2.90;;;;;;;;;;5012804;28;20349;-67
2022/11/25 11:11:18;;;;;;;6.30;2.50;;;;;;;;;;5012399;28;20179;-68
2022/11/25 11:13:45;;;;;;;10.77;3.28;;;;;;;;;;5010982;28;20231;-67
2022/11/25 11:16:27;;;;;;;10.30;2.92;;;;;;;;;;5009485;28;20224;-67
2022/11/25 11:18:53;;;;;;;10.55;2.70;;;;;;;;;;5009028;28;20217;-67
2022/11/25 11:21:35;;;;;;;10.13;3.10;;;;;;;;;;5007687;28;20262;-67
2022/11/25 11:24:02;;;;;;;16.23;3.35;;;;;;;;;;5008149;28;20183;-68
2022/11/25 11:26:33;;;;;;;9.93;3.10;;;;;;;;;;5009325;28;20209;-68
2022/11/25 11:29:14;;;;;;;12.00;3.22;;;;;;;;;;5014514;28;20243;-68
2022/11/25 11:31:45;;;;;;;11.90;2.78;;;;;;;;;;5008850;28;20252;-68
2022/11/25 11:34:46;;;;;;;11.73;2.83;;;;;;;;;;5008955;28;20618;-68
2022/11/25 11:37:45;;;;;;;9.60;2.65;;;;;;;;;;5007425;28;20604;-68
2022/11/25 11:40:24;;;;;;;11.02;2.83;;;;;;;;;;5013127;28;20185;-67
2022/11/25 11:43:02;;;;;;;13.70;3.30;;;;;;;;;;5017938;28;20210;-68
2022/11/25 11:45:48;;;;;;;13.27;3.13;;;;;;;;;;5010803;28;20182;-67
2022/11/25 11:48:24;;;;;;;12.07;2.63;;;;;;;;;;5013250;28;20266;-68
2022/11/25 11:51:08;;;;;;;10.52;3.08;;;;;;;;;;5011827;28;20693;-68
2022/11/25 11:53:46;;;;;;;15.55;3.05;;;;;;;;;;5007503;28;20175;-68
2022/11/25 11:56:28;;;;;;;9.68;2.85;;;;;;;;;;5009255;28;20210;-67
2022/11/25 11:59:17;;;;;;;13.85;3.40;;;;;;;;;;5012218;28;20692;-67
2022/11/25 12:01:52;;;;;;;12.05;3.00;;;;;;;;;;5014025;28;20260;-67
2022/11/25 12:04:39;;;;;;;11.45;2.95;;;;;;;;;;5021551;28;20227;-66
2022/11/25 12:07:30;;;;;;;13.35;3.53;;;;;;;;;;5020019;28;20526;-66
2022/11/25 12:10:13;;;;;;;14.32;2.90;;;;;;;;;;5030772;28;20227;-67
2022/11/25 12:13:08;;;;;;;11.80;3.15;;;;;;;;;;5011715;28;20245;-67
2022/11/25 12:15:46;;;;;;;9.30;3.20;;;;;;;;;;5025007;28;20527;-67
2022/11/25 12:18:31;;;;;;;12.18;3.83;;;;;;;;;;5012920;28;20659;-68
2022/11/25 12:21:02;;;;;;;14.10;4.40;;;;;;;;;;5013344;28;20206;-67
2022/11/25 12:23:30;;;;;;;10.30;2.53;;;;;;;;;;5011968;28;20270;-67
2022/11/25 12:26:04;;;;;;;16.92;3.47;;;;;;;;;;5012084;28;20183;-66
2022/11/25 12:28:38;;;;;;;13.55;3.03;;;;;;;;;;5014683;28;20520;-67
2022/11/25 12:31:17;;;;;;;13.38;3.55;;;;;;;;;;5013500;28;20175;-67
2022/11/25 12:34:12;;;;;;;12.95;2.80;;;;;;;;;;5011890;28;20297;-67
2022/11/25 12:36:43;;;;;;;7.35;2.45;;;;;;;;;;5013337;28;20339;-67
2022/11/25 12:39:30;;;;;;;10.43;3.20;;;;;;;;;;5013430;28;20209;-67
2022/11/25 12:42:00;;;;;;;10.60;3.45;;;;;;;;;;5020775;28;20639;-67
2022/11/25 12:44:48;;;;;;;15.07;3.38;;;;;;;;;;5027063;28;20588;-67
2022/11/25 12:47:13;;;;;;;12.43;3.20;;;;;;;;;;5039162;28;20561;-67
2022/11/25 12:49:45;;;;;;;11.23;4.30;;;;;;;;;;5011037;28;20182;-67
2022/11/25 12:52:19;;;;;;;16.17;5.47;;;;;;;;;;5029463;28;20217;-67
2022/11/25 12:55:08;;;;;;;15.13;6.00;;;;;;;;;;5016539;28;20232;-67
2022/11/25 12:58:13;;;;;;;18.20;7.65;;;;;;;;;;5017564;28;20187;-68
2022/11/25 13:01:06;;;;;;;13.25;4.30;;;;;;;;;;5017626;28;20420;-68
2022/11/25 13:03:54;;;;;;;13.98;4.68;;;;;;;;;;5026690;28;20182;-68
2022/11/25 13:06:59;;;;;;;11.35;3.78;;;;;;;;;;5029456;28;20182;-68
2022/11/25 13:09:55;;;;;;;13.88;4.10;;;;;;;;;;5012196;28;20458;-68
2022/11/25 13:12:38;;;;;;;16.25;4.43;;;;;;;;;;5012468;28;20182;-68
2022/11/25 13:15:19;;;;;;;13.07;3.33;;;;;;;;;;5025239;28;20206;-68
2022/11/25 13:17:47;;;;;;;13.27;3.78;;;;;;;;;;5022705;28;20182;-68
2022/11/25 13:20:38;;;;;;;12.02;3.90;;;;;;;;;;5029744;28;20705;-68
2022/11/25 13:23:09;;;;;;;13.35;3.40;;;;;;;;;;5027000;28;20209;-67
2022/11/25 13:25:40;;;;;;;12.60;3.35;;;;;;;;;;5015914;28;20257;-68
2022/11/25 13:28:35;;;;;;;13.57;3.88;;;;;;;;;;5013001;28;20186;-68
2022/11/25 13:31:12;;;;;;;12.45;3.45;;;;;;;;;;5020155;28;20182;-68
2022/11/25 13:33:43;;;;;;;12.88;3.47;;;;;;;;;;5027270;28;20624;-68
2022/11/25 13:36:24;;;;;;;16.42;4.57;;;;;;;;;;5027421;28;20237;-68
2022/11/25 13:38:50;;;;;;;14.68;4.32;;;;;;;;;;5015926;28;20284;-67
2022/11/25 13:41:15;;;;;;;10.50;3.45;;;;;;;;;;5027784;28;20244;-67
2022/11/25 13:43:59;;;;;;;14.88;3.97;;;;;;;;;;5010154;28;20187;-67
2022/11/25 13:46:37;;;;;;;15.32;3.58;;;;;;;;;;5016891;28;20179;-67
2022/11/25 13:49:05;;;;;;;13.98;4.10;;;;;;;;;;5021939;28;20194;-67
2022/11/25 13:51:31;;;;;;;12.40;3.78;;;;;;;;;;5012092;28;20285;-67
2022/11/25 13:53:59;;;;;;;14.63;4.07;;;;;;;;;;5008920;28;20203;-67
2022/11/25 13:56:28;;;;;;;12.43;3.90;;;;;;;;;;5021703;28;20263;-67
2022/11/25 13:59:36;;;;;;;13.48;4.07;;;;;;;;;;5023645;28;20175;-66
2022/11/25 14:02:26;;;;;;;11.93;3.72;;;;;;;;;;5017042;28;20232;-67
2022/11/25 14:05:19;;;;;;;13.90;4.50;;;;;;;;;;5010113;28;20210;-67
2022/11/25 14:08:10;;;;;;;18.23;3.70;;;;;;;;;;5010117;28;20506;-67
2022/11/25 14:10:36;;;;;;;16.52;5.72;;;;;;;;;;5015357;28;20190;-67
2022/11/25 14:13:22;;;;;;;13.90;4.07;;;;;;;;;;5016698;28;20405;-67
2022/11/25 14:16:11;;;;;;;16.48;4.38;;;;;;;;;;5011497;28;20293;-67
2022/11/25 14:18:46;;;;;;;13.98;4.13;;;;;;;;;;5011064;28;20202;-67
2022/11/25 14:21:49;;;;;;;16.58;4.40;;;;;;;;;;5011393;28;20239;-67
2022/11/25 14:24:33;;;;;;;13.70;4.95;;;;;;;;;;5017766;28;20205;-67
2022/11/25 14:26:59;;;;;;;18.35;8.32;;;;;;;;;;5015923;28;20182;-67
2022/11/25 14:29:50;;;;;;;15.95;5.28;;;;;;;;;;5020060;28;20204;-67
2022/11/25 14:32:26;;;;;;;14.05;5.35;;;;;;;;;;5017704;28;20329;-67
2022/11/25 14:34:58;;;;;;;13.40;4.45;;;;;;;;;;5026683;28;20206;-67
2022/11/25 14:37:34;;;;;;;17.48;4.30;;;;;;;;;;5017316;28;20261;-67
2022/11/25 14:40:17;;;;;;;13.13;4.55;;;;;;;;;;5013368;28;20191;-67
2022/11/25 14:42:45;;;;;;;11.05;3.90;;;;;;;;;;5017185;28;20621;-67
2022/11/25 14:45:30;;;;;;;23.58;5.50;;;;;;;;;;5009230;28;20261;-67
2022/11/25 14:47:55;;;;;;;16.73;4.88;;;;;;;;;;5020195;28;20237;-67
2022/11/25 14:50:22;;;;;;;16.45;5.43;;;;;;;;;;5011128;28;20182;-67
2022/11/25 14:52:48;;;;;;;19.92;5.13;;;;;;;;;;5009745;28;20292;-67
2022/11/25 14:55:27;;;;;;;15.45;4.43;;;;;;;;;;5013560;28;20545;-67
2022/11/25 14:57:52;;;;;;;14.52;4.38;;;;;;;;;;5026602;28;20555;-67
2022/11/25 15:00:18;;;;;;;13.82;4.65;;;;;;;;;;5016226;28;20171;-67
2022/11/25 15:03:01;;;;;;;19.33;4.93;;;;;;;;;;5010797;28;20186;-68
2022/11/25 15:05:35;;;;;;;19.25;4.65;;;;;;;;;;5012441;28;20190;-67
2022/11/25 15:08:07;;;;;;;15.32;4.80;;;;;;;;;;5015216;28;20298;-67